createdAt,value
2022-11-05T00:00:31.875Z,7.63
2022-11-05T00:03:17.268Z,10.43
2022-11-05T00:06:04.178Z,8.60
2022-11-05T00:08:49.802Z,9.40
2022-11-05T00:11:19.084Z,9.57
2022-11-05T00:14:04.439Z,8.67
2022-11-05T00:16:47.304Z,8.63
2022-11-05T00:19:16.682Z,8.13
2022-11-05T00:22:02.271Z,9.17
2022-11-05T00:24:47.868Z,7.33
2022-11-05T00:27:17.092Z,7.47
2022-11-05T00:29:44.997Z,8.03
2022-11-05T00:32:12.900Z,7.70
2022-11-05T00:34:40.789Z,8.17
2022-11-05T00:37:08.720Z,8.77
2022-11-05T00:39:36.570Z,7.97
2022-11-05T00:42:22.162Z,8.47
2022-11-05T00:45:01.737Z,7.87
2022-11-05T00:47:47.290Z,8.07
2022-11-05T00:50:15.532Z,7.30
2022-11-05T00:52:59.365Z,6.00
2022-11-05T00:55:34.713Z,5.40
2022-11-05T00:58:04.198Z,7.47
2022-11-05T01:00:35.466Z,7.50
2022-11-05T01:03:05.315Z,9.33
2022-11-05T01:05:34.884Z,6.77
2022-11-05T01:08:03.040Z,5.73
2022-11-05T01:10:31.379Z,6.63
2022-11-05T01:12:59.563Z,7.00
2022-11-05T01:15:27.816Z,7.20
2022-11-05T01:17:57.209Z,9.93
2022-11-05T01:20:25.273Z,9.50
2022-11-05T01:22:53.145Z,5.93
2022-11-05T01:25:21.186Z,6.80
2022-11-05T01:27:49.085Z,8.97
2022-11-05T01:30:17.260Z,6.30
2022-11-05T01:32:45.343Z,9.67
2022-11-05T01:35:18.957Z,6.90
2022-11-05T01:37:47.193Z,9.30
2022-11-05T01:40:17.456Z,7.10
2022-11-05T01:42:45.758Z,6.37
2022-11-05T01:45:17.444Z,7.03
2022-11-05T01:48:02.571Z,7.87
2022-11-05T01:50:41.388Z,6.53
2022-11-05T01:53:24.100Z,7.83
2022-11-05T01:55:58.697Z,7.00
2022-11-05T01:58:33.879Z,6.73
2022-11-05T02:01:01.982Z,5.20
2022-11-05T02:03:33.075Z,6.60
2022-11-05T02:06:03.907Z,6.33
2022-11-05T02:08:46.132Z,9.03
2022-11-05T02:11:15.264Z,5.20
2022-11-05T02:13:43.095Z,8.40
2022-11-05T02:16:15.555Z,6.73
2022-11-05T02:18:59.164Z,7.83
2022-11-05T02:21:55.859Z,5.90
2022-11-05T02:24:49.696Z,8.80
2022-11-05T02:28:03.416Z,10.37
2022-11-05T02:30:44.643Z,8.07
2022-11-05T02:33:35.496Z,8.40
2022-11-05T02:36:19.204Z,9.37
2022-11-05T02:38:54.137Z,7.90
2022-11-05T02:41:28.862Z,6.67
2022-11-05T02:44:07.779Z,7.00
2022-11-05T02:46:46.598Z,10.07
2022-11-05T02:49:24.464Z,5.93
2022-11-05T02:51:56.888Z,9.40
2022-11-05T02:54:29.990Z,10.17
2022-11-05T02:56:59.941Z,9.63
2022-11-05T02:59:27.840Z,9.40
2022-11-05T03:01:58.501Z,7.70
2022-11-05T03:04:27.248Z,9.27
2022-11-05T03:07:18.015Z,8.90
2022-11-05T03:10:05.249Z,6.63
2022-11-05T03:12:43.999Z,7.30
2022-11-05T03:15:23.069Z,7.87
2022-11-05T03:18:01.929Z,7.90
2022-11-05T03:20:36.894Z,7.00
2022-11-05T03:23:13.404Z,7.30
2022-11-05T03:25:47.689Z,7.40
2022-11-05T03:28:18.112Z,7.00
2022-11-05T03:30:46.859Z,8.90
2022-11-05T03:33:20.316Z,9.30
2022-11-05T03:35:52.916Z,7.20
2022-11-05T03:38:25.385Z,8.23
2022-11-05T03:40:56.458Z,7.90
2022-11-05T03:43:28.691Z,6.23
2022-11-05T03:46:01.709Z,8.73
2022-11-05T03:48:32.965Z,7.17
2022-11-05T03:51:05.885Z,7.43
2022-11-05T03:53:41.819Z,8.33
2022-11-05T03:56:18.102Z,10.50
2022-11-05T03:58:47.377Z,8.43
2022-11-05T04:01:16.349Z,6.47
2022-11-05T04:03:45.897Z,7.70
2022-11-05T04:06:31.426Z,9.10
2022-11-05T04:09:16.789Z,6.13
2022-11-05T04:12:13.498Z,11.60
2022-11-05T04:14:41.740Z,9.20
2022-11-05T04:17:09.669Z,9.50
2022-11-05T04:19:58.643Z,10.93
2022-11-05T04:22:46.328Z,7.93
2022-11-05T04:25:15.497Z,6.30
2022-11-05T04:27:43.466Z,8.03
2022-11-05T04:30:20.441Z,11.57
2022-11-05T04:33:03.425Z,7.70
2022-11-05T04:35:34.836Z,6.83
2022-11-05T04:38:03.056Z,8.07
2022-11-05T04:40:31.286Z,8.40
2022-11-05T04:42:59.380Z,10.03
2022-11-05T04:45:29.570Z,10.63
2022-11-05T04:47:57.481Z,10.13
2022-11-05T04:50:25.423Z,11.57
2022-11-05T04:52:56.779Z,8.53
2022-11-05T04:55:24.736Z,8.70
2022-11-05T04:57:54.659Z,11.50
2022-11-05T05:00:24.349Z,6.67
2022-11-05T05:02:52.213Z,6.50
2022-11-05T05:05:21.212Z,7.17
2022-11-05T05:07:49.101Z,7.73
2022-11-05T05:10:18.765Z,9.73
2022-11-05T05:12:46.825Z,8.83
2022-11-05T05:15:14.768Z,12.00
2022-11-05T05:17:42.607Z,8.37
2022-11-05T05:20:28.190Z,7.90
2022-11-05T05:22:56.197Z,8.20
2022-11-05T05:25:25.446Z,9.63
2022-11-05T05:27:53.540Z,7.67
2022-11-05T05:30:21.445Z,8.57
2022-11-05T05:32:51.465Z,6.27
2022-11-05T05:35:19.412Z,8.23
2022-11-05T05:37:47.292Z,7.40
2022-11-05T05:40:15.130Z,9.17
2022-11-05T05:42:44.384Z,10.37
2022-11-05T05:45:12.716Z,9.87
2022-11-05T05:47:40.605Z,9.20
2022-11-05T05:50:08.932Z,8.50
2022-11-05T05:52:36.845Z,11.87
2022-11-05T05:55:05.469Z,16.63
2022-11-05T05:57:33.351Z,11.23
2022-11-05T06:00:02.851Z,9.70
2022-11-05T06:02:39.779Z,8.60
2022-11-05T06:05:08.191Z,9.50
2022-11-05T06:07:37.608Z,6.03
2022-11-05T06:10:06.692Z,8.83
2022-11-05T06:12:34.873Z,7.37
2022-11-05T06:15:04.807Z,6.43
2022-11-05T06:17:33.953Z,7.30
2022-11-05T06:20:01.848Z,8.83
2022-11-05T06:22:30.448Z,10.33
2022-11-05T06:24:58.374Z,13.40
2022-11-05T06:27:26.280Z,6.87
2022-11-05T06:29:54.125Z,7.00
2022-11-05T06:32:23.297Z,6.97
2022-11-05T06:34:51.216Z,10.70
2022-11-05T06:37:19.114Z,11.23
2022-11-05T06:39:46.943Z,8.13
2022-11-05T06:42:19.079Z,9.80
2022-11-05T06:44:47.602Z,7.23
2022-11-05T06:47:15.524Z,8.30
2022-11-05T06:49:44.749Z,8.80
2022-11-05T06:52:13.078Z,7.00
2022-11-05T06:54:42.253Z,6.80
2022-11-05T06:57:10.857Z,7.33
2022-11-05T06:59:39.200Z,9.37
2022-11-05T07:02:08.112Z,12.77
2022-11-05T07:04:36.242Z,6.23
2022-11-05T07:07:05.482Z,7.17
2022-11-05T07:09:33.368Z,8.83
2022-11-05T07:12:01.193Z,11.00
2022-11-05T07:14:29.798Z,7.93
2022-11-05T07:16:58.136Z,7.43
2022-11-05T07:19:26.102Z,5.93
2022-11-05T07:21:53.976Z,8.63
2022-11-05T07:24:23.169Z,11.50
2022-11-05T07:26:51.302Z,10.63
2022-11-05T07:29:19.204Z,10.90
2022-11-05T07:31:47.886Z,9.03
2022-11-05T07:34:15.743Z,8.47
2022-11-05T07:36:43.643Z,7.37
2022-11-05T07:39:11.552Z,6.83
2022-11-05T07:41:40.739Z,6.40
2022-11-05T07:44:08.673Z,6.60
2022-11-05T07:46:36.521Z,4.87
2022-11-05T07:49:05.045Z,9.47
2022-11-05T07:51:32.970Z,7.43
2022-11-05T07:54:00.971Z,7.37
2022-11-05T07:56:28.826Z,5.33
2022-11-05T07:58:58.038Z,7.60
2022-11-05T08:01:26.418Z,4.67
2022-11-05T08:03:54.787Z,9.23
2022-11-05T08:06:22.624Z,5.00
2022-11-05T08:08:50.485Z,8.10
2022-11-05T08:11:18.813Z,5.67
2022-11-05T08:13:46.702Z,4.77
2022-11-05T08:16:16.398Z,7.93
2022-11-05T08:18:44.643Z,5.43
2022-11-05T08:21:12.522Z,4.73
2022-11-05T08:23:42.421Z,4.10
2022-11-05T08:26:11.248Z,6.40
2022-11-05T08:28:39.178Z,6.23
2022-11-05T08:31:07.084Z,6.67
2022-11-05T08:33:36.280Z,5.30
2022-11-05T08:36:05.284Z,3.30
2022-11-05T08:38:33.277Z,6.50
2022-11-05T08:41:02.137Z,5.10
2022-11-05T08:43:30.042Z,5.03
2022-11-05T08:45:57.901Z,7.20
2022-11-05T08:48:25.809Z,6.87
2022-11-05T08:50:55.276Z,8.63
2022-11-05T08:53:23.132Z,9.37
2022-11-05T08:55:51.525Z,8.43
2022-11-05T08:58:20.630Z,6.03
2022-11-05T09:00:50.731Z,9.03
2022-11-05T09:03:19.294Z,5.00
2022-11-05T09:05:47.672Z,8.23
2022-11-05T09:08:18.979Z,8.67
2022-11-05T09:10:49.786Z,3.07
2022-11-05T09:13:19.732Z,5.63
2022-11-05T09:15:48.783Z,6.03
2022-11-05T09:18:17.648Z,6.00
2022-11-05T09:20:45.680Z,5.43
2022-11-05T09:23:15.399Z,5.90
2022-11-05T09:25:45.134Z,4.30
2022-11-05T09:28:17.137Z,12.73
2022-11-05T09:30:46.958Z,4.53
2022-11-05T09:33:16.182Z,5.83
2022-11-05T09:35:44.531Z,9.20
2022-11-05T09:38:12.726Z,8.97
2022-11-05T09:40:56.492Z,8.13
2022-11-05T09:43:31.630Z,8.60
2022-11-05T09:46:05.509Z,7.57
2022-11-05T09:48:34.874Z,5.17
2022-11-05T09:51:04.796Z,13.53
2022-11-05T09:53:32.913Z,5.37
2022-11-05T09:56:03.087Z,8.03
2022-11-05T09:58:40.223Z,5.70
2022-11-05T10:01:15.678Z,4.40
2022-11-05T10:03:47.010Z,7.47
2022-11-05T10:06:20.380Z,4.77
2022-11-05T10:08:53.404Z,5.03
2022-11-05T10:11:29.489Z,4.00
2022-11-05T10:14:00.413Z,5.53
2022-11-05T10:16:32.267Z,7.33
2022-11-05T10:19:07.235Z,4.37
2022-11-05T10:22:04.079Z,5.97
2022-11-05T10:24:24.385Z,4.47
2022-11-05T10:26:55.469Z,4.53
2022-11-05T10:29:27.563Z,4.83
2022-11-05T10:31:56.948Z,4.13
2022-11-05T10:34:29.340Z,4.13
2022-11-05T10:36:58.561Z,3.73
2022-11-05T10:39:27.628Z,4.10
2022-11-05T10:42:28.725Z,7.53
2022-11-05T10:45:02.951Z,4.83
2022-11-05T10:47:42.102Z,2.60
2022-11-05T10:50:12.621Z,5.13
2022-11-05T10:52:45.066Z,3.83
2022-11-05T10:55:19.897Z,2.13
2022-11-05T10:57:49.669Z,4.40
2022-11-05T11:00:35.451Z,5.33
2022-11-05T11:03:05.955Z,4.80
2022-11-05T11:05:39.043Z,3.73
2022-11-05T11:08:24.975Z,4.17
2022-11-05T11:10:56.302Z,3.53
2022-11-05T11:13:27.882Z,3.17
2022-11-05T11:15:56.327Z,5.83
2022-11-05T11:18:31.515Z,6.40
2022-11-05T11:21:13.866Z,6.13
2022-11-05T11:23:43.272Z,4.63
2022-11-05T11:26:14.013Z,6.97
2022-11-05T11:28:47.078Z,3.87
2022-11-05T11:31:17.001Z,8.17
2022-11-05T11:33:56.902Z,2.90
2022-11-05T11:36:27.593Z,3.27
2022-11-05T11:39:00.732Z,6.57
2022-11-05T11:41:33.442Z,5.40
2022-11-05T11:44:08.513Z,5.07
2022-11-05T11:46:36.927Z,4.73
2022-11-05T11:49:07.045Z,3.10
2022-11-05T11:51:40.322Z,2.47
2022-11-05T11:54:20.970Z,4.10
2022-11-05T11:56:49.871Z,3.07
2022-11-05T11:59:46.701Z,3.03
2022-11-05T12:02:36.825Z,2.27
2022-11-05T12:05:17.942Z,2.30
2022-11-05T12:07:52.741Z,3.53
2022-11-05T12:10:35.162Z,4.83
2022-11-05T12:13:46.510Z,3.33
2022-11-05T12:16:26.087Z,2.60
2022-11-05T12:19:03.996Z,3.00
2022-11-05T12:21:52.649Z,4.93
2022-11-05T12:24:44.098Z,5.50
2022-11-05T12:27:24.376Z,5.00
2022-11-05T12:29:59.292Z,2.43
2022-11-05T12:32:48.132Z,5.10
2022-11-05T12:35:31.518Z,2.83
2022-11-05T12:38:10.103Z,3.97
2022-11-05T12:40:47.814Z,2.87
2022-11-05T12:43:24.527Z,4.10
2022-11-05T12:46:00.158Z,2.57
2022-11-05T12:49:03.893Z,6.10
2022-11-05T12:51:47.210Z,4.27
2022-11-05T12:54:24.246Z,2.83
2022-11-05T12:56:55.128Z,3.17
2022-11-05T12:59:29.325Z,4.00
2022-11-05T13:02:03.272Z,3.30
2022-11-05T13:04:39.141Z,4.37
2022-11-05T13:07:10.561Z,4.43
2022-11-05T13:09:43.616Z,4.53
2022-11-05T13:12:14.408Z,4.60
2022-11-05T13:14:47.809Z,3.47
2022-11-05T13:17:19.405Z,3.73
2022-11-05T13:19:56.947Z,6.27
2022-11-05T13:22:34.736Z,3.90
2022-11-05T13:25:07.138Z,5.43
2022-11-05T13:27:51.129Z,3.33
2022-11-05T13:30:22.131Z,2.90
2022-11-05T13:32:56.312Z,5.40
2022-11-05T13:35:29.988Z,3.23
2022-11-05T13:38:20.576Z,4.97
2022-11-05T13:41:02.812Z,7.33
2022-11-05T13:43:58.756Z,7.37
2022-11-05T13:46:40.730Z,4.53
2022-11-05T13:49:28.836Z,11.63
2022-11-05T13:52:03.682Z,5.13
2022-11-05T13:54:59.097Z,3.50
2022-11-05T13:57:56.901Z,5.20
2022-11-05T14:00:26.974Z,3.97
2022-11-05T14:02:57.753Z,14.27
2022-11-05T14:05:30.616Z,13.50
2022-11-05T14:08:02.872Z,9.47
2022-11-05T14:10:36.479Z,17.30
2022-11-05T14:13:19.513Z,6.63
2022-11-05T14:16:05.025Z,5.00
2022-11-05T14:18:42.612Z,4.30
2022-11-05T14:21:30.483Z,3.50
2022-11-05T14:24:01.084Z,2.67
2022-11-05T14:26:31.453Z,5.97
2022-11-05T14:29:38.176Z,4.60
2022-11-05T14:32:25.926Z,5.30
2022-11-05T14:35:04.042Z,6.20
2022-11-05T14:37:36.806Z,3.60
2022-11-05T14:40:36.184Z,5.50
2022-11-05T14:43:07.310Z,2.43
2022-11-05T14:45:38.008Z,5.63
2022-11-05T14:48:08.146Z,3.67
2022-11-05T14:50:39.436Z,2.83
2022-11-05T14:53:13.424Z,3.60
2022-11-05T14:55:44.645Z,4.80
2022-11-05T14:58:36.536Z,6.40
2022-11-05T15:01:08.167Z,6.77
2022-11-05T15:04:01.861Z,19.47
2022-11-05T15:06:35.626Z,5.37
2022-11-05T15:09:14.350Z,5.13
2022-11-05T15:11:50.362Z,5.10
2022-11-05T15:14:23.913Z,3.77
2022-11-05T15:16:54.541Z,3.00
2022-11-05T15:19:26.398Z,3.17
2022-11-05T15:21:57.595Z,2.67
2022-11-05T15:24:28.057Z,5.07
2022-11-05T15:27:04.486Z,9.00
2022-11-05T15:29:33.903Z,7.43
2022-11-05T15:32:02.037Z,4.40
2022-11-05T15:34:32.210Z,4.77
2022-11-05T15:37:01.855Z,4.40
2022-11-05T15:39:33.424Z,6.80
2022-11-05T15:42:06.642Z,6.67
2022-11-05T15:44:39.368Z,6.17
2022-11-05T15:47:16.609Z,7.77
2022-11-05T15:49:46.364Z,6.07
2022-11-05T15:52:16.376Z,4.60
2022-11-05T15:54:44.671Z,8.53
2022-11-05T15:57:24.212Z,8.67
2022-11-05T15:59:52.306Z,8.23
2022-11-05T16:02:28.818Z,7.40
2022-11-05T16:04:57.748Z,6.73
2022-11-05T16:07:27.064Z,6.80
2022-11-05T16:09:57.892Z,6.40
2022-11-05T16:12:34.824Z,9.77
2022-11-05T16:15:17.651Z,8.10
2022-11-05T16:17:49.895Z,10.50
2022-11-05T16:20:24.108Z,4.57
2022-11-05T16:22:54.674Z,7.83
2022-11-05T16:25:36.941Z,7.37
2022-11-05T16:28:08.286Z,7.27
2022-11-05T16:30:36.224Z,6.33
2022-11-05T16:33:06.500Z,8.73
2022-11-05T16:35:34.716Z,10.40
2022-11-05T16:38:03.749Z,9.73
2022-11-05T16:40:31.626Z,12.40
2022-11-05T16:43:19.620Z,6.23
2022-11-05T16:45:48.239Z,12.30
2022-11-05T16:48:17.436Z,11.73
2022-11-05T16:50:48.444Z,8.97
2022-11-05T16:53:17.273Z,9.20
2022-11-05T16:55:46.457Z,7.97
2022-11-05T16:58:20.933Z,6.77
2022-11-05T17:00:50.544Z,9.87
2022-11-05T17:03:18.613Z,8.67
2022-11-05T17:05:46.847Z,11.03
2022-11-05T17:08:15.355Z,9.13
2022-11-05T17:10:43.597Z,8.87
2022-11-05T17:13:15.247Z,9.40
2022-11-05T17:15:46.029Z,6.00
2022-11-05T17:18:18.549Z,6.67
2022-11-05T17:20:48.899Z,7.67
2022-11-05T17:23:19.471Z,9.57
2022-11-05T17:25:50.093Z,9.07
2022-11-05T17:28:19.076Z,28.37
2022-11-05T17:30:52.604Z,20.83
2022-11-05T17:33:22.473Z,30.33
2022-11-05T17:35:50.943Z,13.87
2022-11-05T17:38:19.249Z,14.20
2022-11-05T17:40:47.118Z,18.27
2022-11-05T17:43:16.345Z,11.77
2022-11-05T17:45:45.385Z,12.27
2022-11-05T17:48:14.966Z,12.10
2022-11-05T17:50:43.919Z,15.53
2022-11-05T17:53:13.146Z,11.87
2022-11-05T17:55:41.718Z,13.20
2022-11-05T17:58:09.697Z,15.70
2022-11-05T18:00:38.300Z,16.33
2022-11-05T18:03:06.267Z,13.83
2022-11-05T18:05:36.307Z,9.70
2022-11-05T18:08:04.768Z,12.17
2022-11-05T18:10:33.532Z,9.17
2022-11-05T18:13:01.361Z,8.27
2022-11-05T18:15:29.339Z,9.23
2022-11-05T18:17:57.227Z,9.67
2022-11-05T18:20:25.428Z,9.93
2022-11-05T18:22:54.635Z,9.27
2022-11-05T18:25:22.622Z,9.60
2022-11-05T18:27:50.459Z,11.27
2022-11-05T18:30:18.400Z,8.90
2022-11-05T18:32:47.636Z,10.53
2022-11-05T18:35:15.515Z,9.03
2022-11-05T18:37:43.545Z,11.27
2022-11-05T18:40:13.489Z,13.83
2022-11-05T18:42:41.645Z,10.03
2022-11-05T18:45:11.221Z,10.10
2022-11-05T18:47:39.345Z,10.63
2022-11-05T18:50:09.295Z,11.57
2022-11-05T18:52:37.458Z,14.10
2022-11-05T18:55:06.331Z,10.27
2022-11-05T18:57:35.925Z,12.67
2022-11-05T19:00:04.940Z,14.57
2022-11-05T19:02:33.231Z,15.67
2022-11-05T19:05:27.334Z,17.23
2022-11-05T19:07:49.011Z,13.57
2022-11-05T19:10:17.104Z,12.90
2022-11-05T19:12:46.320Z,15.73
2022-11-05T19:15:14.366Z,13.43
2022-11-05T19:17:42.549Z,13.47
2022-11-05T19:20:12.476Z,17.43
2022-11-05T19:22:40.377Z,13.63
2022-11-05T19:25:08.914Z,10.97
2022-11-05T19:27:37.462Z,16.00
2022-11-05T19:30:07.721Z,11.73
2022-11-05T19:32:35.641Z,13.17
2022-11-05T19:35:03.674Z,14.83
2022-11-05T19:37:33.898Z,12.30
2022-11-05T19:40:01.753Z,13.93
2022-11-05T19:42:29.638Z,11.20
2022-11-05T19:45:06.816Z,16.50
2022-11-05T19:47:46.136Z,15.03
2022-11-05T19:50:14.106Z,15.83
2022-11-05T19:52:41.972Z,17.13
2022-11-05T19:55:12.348Z,17.93
2022-11-05T19:57:40.404Z,13.27
2022-11-05T20:00:10.026Z,19.43
2022-11-05T20:02:38.754Z,11.87
2022-11-05T20:05:08.708Z,17.93
2022-11-05T20:07:36.694Z,12.60
2022-11-05T20:10:05.817Z,17.53
2022-11-05T20:12:34.363Z,14.67
2022-11-05T20:15:02.362Z,10.83
2022-11-05T20:17:30.446Z,16.00
2022-11-05T20:19:58.988Z,12.10
2022-11-05T20:22:28.246Z,10.73
2022-11-05T20:24:56.124Z,15.20
2022-11-05T20:27:24.173Z,11.63
2022-11-05T20:29:52.058Z,18.37
2022-11-05T20:32:19.939Z,12.97
2022-11-05T20:34:47.824Z,12.23
2022-11-05T20:37:15.663Z,13.23
2022-11-05T20:39:44.905Z,12.70
2022-11-05T20:42:13.039Z,14.70
2022-11-05T20:44:40.960Z,11.57
2022-11-05T20:47:08.873Z,13.30
2022-11-05T20:49:36.789Z,12.10
2022-11-05T20:52:04.677Z,23.10
2022-11-05T20:54:32.957Z,24.97
2022-11-05T20:57:02.190Z,16.70
2022-11-05T20:59:30.117Z,20.40
2022-11-05T21:01:58.133Z,11.63
2022-11-05T21:04:26.017Z,11.07
2022-11-05T21:06:53.854Z,13.00
2022-11-05T21:09:21.730Z,12.53
2022-11-05T21:12:07.084Z,18.87
2022-11-05T21:14:36.291Z,10.60
2022-11-05T21:17:04.388Z,11.97
2022-11-05T21:19:32.691Z,11.33
2022-11-05T21:22:00.663Z,11.67
2022-11-05T21:24:28.597Z,11.63
2022-11-05T21:26:56.762Z,13.00
2022-11-05T21:29:24.712Z,45.03
2022-11-05T21:31:54.461Z,12.43
2022-11-05T21:34:22.429Z,9.87
2022-11-05T21:36:51.444Z,9.23
2022-11-05T21:39:19.795Z,9.57
2022-11-05T21:41:47.658Z,12.00
2022-11-05T21:44:15.605Z,12.27
2022-11-05T21:46:43.526Z,9.43
2022-11-05T21:49:14.393Z,9.50
2022-11-05T21:51:59.851Z,10.43
2022-11-05T21:54:45.321Z,12.23
2022-11-05T21:57:33.756Z,19.97
2022-11-05T22:00:03.660Z,16.80
2022-11-05T22:02:32.763Z,10.90
2022-11-05T22:05:03.115Z,10.33
2022-11-05T22:07:33.806Z,12.33
2022-11-05T22:10:02.360Z,11.03
2022-11-05T22:12:31.942Z,10.50
2022-11-05T22:14:59.908Z,9.33
2022-11-05T22:17:27.971Z,10.93
2022-11-05T22:19:55.872Z,9.17
2022-11-05T22:22:25.193Z,9.10
2022-11-05T22:24:53.121Z,9.43
2022-11-05T22:27:22.396Z,9.80
2022-11-05T22:29:50.687Z,12.50
2022-11-05T22:32:20.166Z,10.43
2022-11-05T22:34:49.168Z,10.13
2022-11-05T22:37:17.311Z,8.50
2022-11-05T22:39:46.524Z,6.57
2022-11-05T22:42:14.958Z,10.30
2022-11-05T22:44:42.906Z,8.37
2022-11-05T22:47:10.852Z,10.97
2022-11-05T22:49:38.943Z,13.17
2022-11-05T22:52:07.434Z,8.60
2022-11-05T22:54:39.200Z,12.80
2022-11-05T22:57:08.790Z,6.73
2022-11-05T22:59:36.670Z,9.30
2022-11-05T23:02:09.437Z,6.73
2022-11-05T23:04:38.325Z,7.90
2022-11-05T23:07:27.635Z,5.87
2022-11-05T23:10:13.863Z,7.93
2022-11-05T23:12:44.418Z,10.57
2022-11-05T23:15:33.180Z,10.87
2022-11-05T23:18:18.641Z,8.20
2022-11-05T23:21:04.088Z,6.70
2022-11-05T23:23:49.704Z,13.17
2022-11-05T23:26:35.168Z,6.00
2022-11-05T23:29:04.507Z,9.47
2022-11-05T23:31:50.085Z,9.20
2022-11-05T23:34:18.075Z,5.83
2022-11-05T23:37:03.494Z,6.80
2022-11-05T23:39:31.368Z,7.67
2022-11-05T23:42:16.489Z,6.07
2022-11-05T23:45:03.334Z,7.27
2022-11-05T23:47:48.703Z,5.70
2022-11-05T23:50:16.683Z,8.70
2022-11-05T23:52:44.537Z,7.00
2022-11-05T23:55:12.485Z,8.40
2022-11-05T23:57:40.815Z,5.20
